Time;durP1;ratioP1;P1;durP2;ratioP2;P2;SDS_P1;SDS_P2;PMS_P1;PMS_P2;Temp;Humidity;BMP_temperature;BMP_pressure;BME280_temperature;BME280_humidity;BME280_pressure;Samples;Min_cycle;Max_cycle;Signal;HPM_P1;HPM_P2
2022/08/19 00:02:08;;;;;;;44.70;36.90;;;;;;;;;;5047584;28;20213;-65
2022/08/19 00:04:36;;;;;;;41.63;33.75;;;;;;;;;;5041534;28;20240;-65
2022/08/19 00:07:05;;;;;;;43.60;34.55;;;;;;;;;;5042139;28;20219;-65
2022/08/19 00:09:32;;;;;;;40.30;33.45;;;;;;;;;;5043083;28;20237;-66
2022/08/19 00:12:01;;;;;;;37.53;31.15;;;;;;;;;;5040161;28;20210;-67
2022/08/19 00:14:31;;;;;;;37.15;31.15;;;;;;;;;;5054672;28;20214;-65
2022/08/19 00:16:59;;;;;;;38.78;31.15;;;;;;;;;;5055841;28;20210;-66
2022/08/19 00:19:27;;;;;;;39.20;32.25;;;;;;;;;;5046643;28;20282;-66
2022/08/19 00:21:55;;;;;;;36.25;30.48;;;;;;;;;;5043984;28;20259;-66
2022/08/19 00:24:23;;;;;;;35.83;29.45;;;;;;;;;;5053082;28;20668;-67
2022/08/19 00:26:51;;;;;;;35.70;28.55;;;;;;;;;;5058628;28;20664;-66
2022/08/19 00:29:20;;;;;;;36.58;30.85;;;;;;;;;;5039766;28;20636;-65
2022/08/19 00:31:48;;;;;;;39.30;32.60;;;;;;;;;;5052910;28;20205;-66
2022/08/19 00:34:16;;;;;;;37.25;31.38;;;;;;;;;;5031106;28;20937;-66
2022/08/19 00:36:44;;;;;;;37.80;31.20;;;;;;;;;;5039237;28;20205;-66
2022/08/19 00:39:12;;;;;;;38.22;31.40;;;;;;;;;;5033340;28;20680;-66
2022/08/19 00:41:40;;;;;;;37.17;31.27;;;;;;;;;;5039421;28;20196;-68
2022/08/19 00:44:09;;;;;;;35.15;29.67;;;;;;;;;;5050624;28;20556;-66
2022/08/19 00:46:38;;;;;;;36.97;30.35;;;;;;;;;;5038094;28;20634;-68
2022/08/19 00:49:10;;;;;;;33.90;28.63;;;;;;;;;;5045192;28;20328;-66
2022/08/19 00:51:37;;;;;;;38.30;31.05;;;;;;;;;;5050849;28;20202;-68
2022/08/19 00:54:05;;;;;;;38.40;30.48;;;;;;;;;;5059472;28;20294;-67
2022/08/19 00:56:33;;;;;;;37.13;30.48;;;;;;;;;;5039683;28;20210;-67
2022/08/19 00:59:01;;;;;;;34.60;29.45;;;;;;;;;;5027608;28;20229;-67
2022/08/19 01:01:29;;;;;;;36.90;30.75;;;;;;;;;;5033710;28;20217;-67
2022/08/19 01:03:56;;;;;;;37.65;30.20;;;;;;;;;;5037666;28;20209;-64
2022/08/19 01:06:25;;;;;;;38.25;31.48;;;;;;;;;;5032885;28;20201;-67
2022/08/19 01:08:54;;;;;;;39.80;32.15;;;;;;;;;;5054172;28;20210;-67
2022/08/19 01:11:22;;;;;;;40.50;32.78;;;;;;;;;;5041212;28;20225;-67
2022/08/19 01:13:50;;;;;;;39.08;31.58;;;;;;;;;;5041675;28;20212;-67
2022/08/19 01:16:19;;;;;;;41.95;32.97;;;;;;;;;;5040234;28;20278;-65
2022/08/19 01:18:46;;;;;;;41.38;32.75;;;;;;;;;;5043224;28;21404;-67
2022/08/19 01:21:33;;;;;;;36.63;29.77;;;;;;;;;;5037745;28;20274;-69
2022/08/19 01:24:00;;;;;;;37.92;30.83;;;;;;;;;;5040424;28;20720;-65
2022/08/19 01:26:28;;;;;;;32.55;28.08;;;;;;;;;;5040671;28;20301;-66
2022/08/19 01:29:00;;;;;;;32.15;26.27;;;;;;;;;;5043050;28;20213;-67
2022/08/19 01:31:31;;;;;;;27.80;23.85;;;;;;;;;;5055997;28;20206;-66
2022/08/19 01:33:59;;;;;;;30.73;25.75;;;;;;;;;;5041353;28;20209;-64
2022/08/19 01:36:27;;;;;;;30.45;25.85;;;;;;;;;;5037136;28;20217;-65
2022/08/19 01:38:55;;;;;;;32.70;26.00;;;;;;;;;;5050266;28;20224;-63
2022/08/19 01:41:23;;;;;;;30.02;25.27;;;;;;;;;;5041679;28;20213;-66
2022/08/19 01:43:51;;;;;;;33.20;25.73;;;;;;;;;;5036197;28;20211;-65
2022/08/19 01:46:39;;;;;;;36.58;27.52;;;;;;;;;;5038053;28;20210;-65
2022/08/19 01:49:07;;;;;;;35.35;28.13;;;;;;;;;;5048473;28;20214;-65
2022/08/19 01:51:35;;;;;;;37.88;27.58;;;;;;;;;;5050135;28;20941;-66
2022/08/19 01:54:07;;;;;;;35.90;28.02;;;;;;;;;;5036060;28;20298;-65
2022/08/19 01:56:35;;;;;;;37.63;30.38;;;;;;;;;;5053992;28;20221;-65
2022/08/19 01:59:04;;;;;;;35.00;28.75;;;;;;;;;;5049261;28;20271;-65
2022/08/19 02:01:31;;;;;;;39.10;30.10;;;;;;;;;;5033952;28;20213;-65
2022/08/19 02:04:00;;;;;;;42.05;30.73;;;;;;;;;;5039679;28;20648;-65
2022/08/19 02:06:28;;;;;;;38.20;29.63;;;;;;;;;;5038988;28;20213;-65
2022/08/19 02:08:56;;;;;;;37.22;29.98;;;;;;;;;;5042711;28;20206;-68
2022/08/19 02:11:26;;;;;;;40.17;29.77;;;;;;;;;;5041600;28;20221;-67
2022/08/19 02:13:54;;;;;;;38.78;31.55;;;;;;;;;;5049717;28;20205;-66
2022/08/19 02:16:22;;;;;;;41.97;30.90;;;;;;;;;;5039564;28;21187;-67
2022/08/19 02:18:50;;;;;;;40.72;30.45;;;;;;;;;;5050692;28;20286;-66
2022/08/19 02:21:18;;;;;;;41.40;30.45;;;;;;;;;;5045243;28;21217;-69
2022/08/19 02:23:45;;;;;;;39.72;31.50;;;;;;;;;;5045481;28;20314;-68
2022/08/19 02:26:13;;;;;;;40.58;30.58;;;;;;;;;;5041948;28;20301;-68
2022/08/19 02:28:41;;;;;;;43.33;32.13;;;;;;;;;;5050289;28;20201;-66
2022/08/19 02:31:14;;;;;;;37.85;30.40;;;;;;;;;;5051099;28;20298;-67
2022/08/19 02:33:42;;;;;;;40.17;29.77;;;;;;;;;;5068719;28;20211;-68
2022/08/19 02:36:10;;;;;;;42.97;30.95;;;;;;;;;;5052441;28;20253;-66
2022/08/19 02:38:38;;;;;;;44.25;31.52;;;;;;;;;;5042719;28;20233;-67
2022/08/19 02:41:09;;;;;;;41.97;30.83;;;;;;;;;;5060942;28;20240;-66
2022/08/19 02:43:38;;;;;;;44.00;31.73;;;;;;;;;;5042018;28;20291;-67
2022/08/19 02:46:26;;;;;;;46.83;31.08;;;;;;;;;;5042850;28;20740;-67
2022/08/19 02:48:55;;;;;;;41.35;31.45;;;;;;;;;;5063482;28;21037;-64
2022/08/19 02:51:27;;;;;;;43.22;32.75;;;;;;;;;;5056662;28;20236;-67
2022/08/19 02:53:59;;;;;;;43.35;31.45;;;;;;;;;;5038314;28;20217;-67
2022/08/19 02:56:27;;;;;;;42.45;32.45;;;;;;;;;;5058792;28;20263;-69
2022/08/19 02:58:56;;;;;;;42.47;31.55;;;;;;;;;;5047160;28;20213;-66
2022/08/19 03:01:25;;;;;;;43.67;31.48;;;;;;;;;;5051766;28;20230;-68
2022/08/19 03:03:53;;;;;;;43.75;31.25;;;;;;;;;;5031470;28;20204;-69
2022/08/19 03:06:21;;;;;;;43.28;30.45;;;;;;;;;;5042870;28;20270;-65
2022/08/19 03:08:52;;;;;;;40.75;30.83;;;;;;;;;;5060691;28;20647;-67
2022/08/19 03:11:21;;;;;;;39.60;31.33;;;;;;;;;;5066697;28;20284;-65
2022/08/19 03:13:50;;;;;;;43.60;33.25;;;;;;;;;;5049383;28;20231;-66
2022/08/19 03:16:25;;;;;;;44.22;31.75;;;;;;;;;;5061932;28;20350;-66
2022/08/19 03:18:53;;;;;;;45.90;32.17;;;;;;;;;;5069163;28;20216;-68
2022/08/19 03:21:23;;;;;;;40.65;29.90;;;;;;;;;;5036589;28;20225;-67
2022/08/19 03:23:54;;;;;;;42.47;32.15;;;;;;;;;;5068330;28;20251;-66
2022/08/19 03:26:21;;;;;;;43.95;31.77;;;;;;;;;;5051938;28;20210;-65
2022/08/19 03:28:49;;;;;;;44.10;31.27;;;;;;;;;;5056177;28;20205;-64
2022/08/19 03:31:26;;;;;;;42.90;32.00;;;;;;;;;;5046112;28;20581;-68
2022/08/19 03:34:15;;;;;;;44.80;32.80;;;;;;;;;;5050374;28;20334;-66
2022/08/19 03:36:42;;;;;;;46.05;32.33;;;;;;;;;;5040488;28;20664;-65
2022/08/19 03:39:10;;;;;;;44.38;31.00;;;;;;;;;;5042028;28;20308;-69
2022/08/19 03:41:40;;;;;;;45.55;32.53;;;;;;;;;;5042860;28;20201;-67
2022/08/19 03:44:17;;;;;;;44.45;31.70;;;;;;;;;;5045471;28;20192;-66
2022/08/19 03:46:53;;;;;;;44.75;31.15;;;;;;;;;;5050275;28;20217;-67
2022/08/19 03:49:21;;;;;;;45.17;31.88;;;;;;;;;;5038203;28;21458;-66
2022/08/19 03:51:55;;;;;;;42.58;32.22;;;;;;;;;;5042208;28;20285;-64
2022/08/19 03:54:23;;;;;;;45.92;33.00;;;;;;;;;;5050247;28;20616;-68
2022/08/19 03:56:51;;;;;;;45.70;33.03;;;;;;;;;;5043506;28;20210;-66
2022/08/19 03:59:30;;;;;;;46.55;34.33;;;;;;;;;;5044529;28;20232;-66
2022/08/19 04:01:58;;;;;;;47.03;32.85;;;;;;;;;;5059663;28;20215;-67
2022/08/19 04:04:26;;;;;;;46.55;33.63;;;;;;;;;;5041217;28;20651;-66
2022/08/19 04:06:56;;;;;;;47.90;34.60;;;;;;;;;;5046094;28;20205;-67
2022/08/19 04:09:23;;;;;;;46.58;33.42;;;;;;;;;;5036327;28;20208;-65
2022/08/19 04:11:55;;;;;;;48.15;34.35;;;;;;;;;;5070286;28;20210;-66
2022/08/19 04:14:24;;;;;;;45.10;32.95;;;;;;;;;;5062374;28;20744;-66
2022/08/19 04:16:52;;;;;;;44.85;32.90;;;;;;;;;;5057811;28;20216;-68
2022/08/19 04:19:20;;;;;;;49.42;34.53;;;;;;;;;;5068096;28;20220;-67
2022/08/19 04:21:49;;;;;;;48.30;35.05;;;;;;;;;;5052182;28;20202;-66
2022/08/19 04:24:17;;;;;;;47.88;35.28;;;;;;;;;;5038917;28;20209;-66
2022/08/19 04:26:45;;;;;;;50.70;34.47;;;;;;;;;;5037629;28;20202;-66
2022/08/19 04:29:21;;;;;;;51.67;35.75;;;;;;;;;;5060946;28;20700;-68
2022/08/19 04:31:50;;;;;;;52.50;36.42;;;;;;;;;;5031084;28;20314;-67
2022/08/19 04:34:21;;;;;;;49.03;35.75;;;;;;;;;;5028347;28;20270;-67
2022/08/19 04:36:53;;;;;;;50.80;35.92;;;;;;;;;;5033556;28;20877;-67
2022/08/19 04:39:21;;;;;;;52.85;36.78;;;;;;;;;;5026538;28;20765;-68
2022/08/19 04:44:36;;;;;;;48.60;35.58;;;;;;;;;;5053808;28;20249;-66
2022/08/19 04:47:13;;;;;;;48.30;35.53;;;;;;;;;;5050738;28;20249;-64
2022/08/19 04:49:41;;;;;;;51.30;36.65;;;;;;;;;;5065519;28;20674;-65
2022/08/19 04:52:08;;;;;;;53.22;37.28;;;;;;;;;;5053966;28;20205;-66
2022/08/19 04:54:36;;;;;;;54.42;38.47;;;;;;;;;;5046431;28;21046;-64
2022/08/19 04:57:09;;;;;;;54.67;38.17;;;;;;;;;;5038542;28;20683;-67
2022/08/19 04:59:39;;;;;;;58.33;39.70;;;;;;;;;;5034205;28;20233;-65
2022/08/19 05:02:08;;;;;;;53.80;38.83;;;;;;;;;;5029991;28;20208;-68
2022/08/19 05:04:38;;;;;;;56.92;38.67;;;;;;;;;;5047415;28;20702;-65
2022/08/19 05:07:07;;;;;;;54.10;38.88;;;;;;;;;;5033577;28;20225;-68
2022/08/19 05:09:35;;;;;;;50.65;37.90;;;;;;;;;;5049078;28;20222;-66
2022/08/19 05:12:22;;;;;;;53.53;39.20;;;;;;;;;;5035791;28;20401;-66
2022/08/19 05:14:56;;;;;;;59.78;41.22;;;;;;;;;;5043825;28;20673;-67
2022/08/19 05:17:25;;;;;;;53.97;39.55;;;;;;;;;;5047140;28;20210;-66
2022/08/19 05:22:43;;;;;;;56.42;39.85;;;;;;;;;;5059756;28;20205;-66
2022/08/19 05:25:13;;;;;;;63.65;41.28;;;;;;;;;;5042343;28;20209;-68
2022/08/19 05:27:41;;;;;;;56.58;39.45;;;;;;;;;;5044056;28;20684;-66
2022/08/19 05:30:09;;;;;;;56.63;40.17;;;;;;;;;;5051460;28;20229;-67
2022/08/19 05:32:37;;;;;;;56.03;38.67;;;;;;;;;;5054364;28;20667;-65
2022/08/19 05:35:05;;;;;;;57.00;40.15;;;;;;;;;;5037972;28;20216;-65
2022/08/19 05:37:33;;;;;;;58.47;39.40;;;;;;;;;;5034525;28;20213;-64
2022/08/19 05:40:01;;;;;;;56.97;40.10;;;;;;;;;;5038509;28;20359;-66
2022/08/19 05:42:28;;;;;;;60.50;40.58;;;;;;;;;;5057746;28;20203;-67
2022/08/19 05:44:56;;;;;;;63.47;41.78;;;;;;;;;;5041681;28;20255;-66
2022/08/19 05:47:24;;;;;;;58.97;40.13;;;;;;;;;;5041018;28;20270;-66
2022/08/19 05:49:51;;;;;;;61.97;42.38;;;;;;;;;;5045754;28;20217;-66
2022/08/19 05:52:19;;;;;;;61.17;41.03;;;;;;;;;;5037905;28;20671;-67
2022/08/19 05:54:55;;;;;;;55.22;39.13;;;;;;;;;;5048552;28;20761;-64
2022/08/19 05:57:23;;;;;;;59.97;40.92;;;;;;;;;;5050697;28;20206;-66
2022/08/19 05:59:51;;;;;;;59.38;39.63;;;;;;;;;;5055208;28;20234;-67
2022/08/19 06:02:26;;;;;;;60.30;41.53;;;;;;;;;;5045162;28;20197;-66
2022/08/19 06:04:54;;;;;;;60.55;41.83;;;;;;;;;;5044698;28;20258;-66
2022/08/19 06:07:22;;;;;;;57.15;40.58;;;;;;;;;;5050164;28;20248;-67
2022/08/19 06:09:50;;;;;;;58.30;40.60;;;;;;;;;;5053637;28;20233;-67
2022/08/19 06:12:34;;;;;;;56.55;39.50;;;;;;;;;;5043408;28;20217;-66
2022/08/19 06:15:12;;;;;;;59.75;40.47;;;;;;;;;;5061159;28;20212;-64
2022/08/19 06:17:41;;;;;;;60.28;42.30;;;;;;;;;;5047127;28;20924;-65
2022/08/19 06:20:13;;;;;;;60.35;41.13;;;;;;;;;;5047210;28;20683;-65
2022/08/19 06:22:44;;;;;;;60.88;42.55;;;;;;;;;;5051368;28;21916;-66
2022/08/19 06:25:11;;;;;;;60.40;41.63;;;;;;;;;;5061391;28;20209;-65
2022/08/19 06:27:39;;;;;;;63.45;42.08;;;;;;;;;;5042207;28;20648;-67
2022/08/19 06:30:27;;;;;;;61.33;42.90;;;;;;;;;;5051082;28;20229;-64
2022/08/19 06:32:54;;;;;;;60.88;42.20;;;;;;;;;;5040407;28;20217;-66
2022/08/19 06:35:22;;;;;;;64.07;43.13;;;;;;;;;;5039352;28;20201;-66
2022/08/19 06:37:49;;;;;;;64.88;43.63;;;;;;;;;;5040332;28;20264;-65
2022/08/19 06:40:17;;;;;;;66.05;42.72;;;;;;;;;;5037232;28;20711;-66
2022/08/19 06:42:44;;;;;;;65.18;42.60;;;;;;;;;;5041581;28;20743;-64
2022/08/19 06:45:22;;;;;;;61.17;41.42;;;;;;;;;;5044359;28;20236;-65
2022/08/19 06:47:55;;;;;;;61.22;42.22;;;;;;;;;;5027152;28;20224;-64
2022/08/19 06:50:26;;;;;;;59.45;41.75;;;;;;;;;;5020046;28;20241;-64
2022/08/19 06:52:54;;;;;;;59.90;41.45;;;;;;;;;;5026799;28;20255;-67
2022/08/19 06:55:22;;;;;;;63.13;42.00;;;;;;;;;;5026804;28;20197;-66
2022/08/19 06:57:52;;;;;;;64.32;43.13;;;;;;;;;;5027953;28;20245;-66
2022/08/19 07:00:20;;;;;;;58.60;41.53;;;;;;;;;;5027024;28;20334;-65
2022/08/19 07:02:49;;;;;;;64.40;42.53;;;;;;;;;;5036295;28;20241;-63
2022/08/19 07:05:24;;;;;;;61.03;41.13;;;;;;;;;;5021915;28;21949;-64
2022/08/19 07:07:52;;;;;;;62.67;41.97;;;;;;;;;;5039664;28;20194;-66
2022/08/19 07:10:27;;;;;;;63.17;43.35;;;;;;;;;;5030424;28;20233;-66
2022/08/19 07:12:55;;;;;;;60.80;41.55;;;;;;;;;;5034980;28;20851;-64
2022/08/19 07:15:23;;;;;;;58.50;40.83;;;;;;;;;;5053584;28;20581;-64
2022/08/19 07:17:51;;;;;;;62.10;42.25;;;;;;;;;;5047003;28;20249;-66
2022/08/19 07:20:19;;;;;;;63.78;41.97;;;;;;;;;;5049886;28;20250;-64
2022/08/19 07:22:47;;;;;;;60.53;41.42;;;;;;;;;;5047568;28;20197;-64
2022/08/19 07:25:17;;;;;;;64.15;42.80;;;;;;;;;;5052251;28;20209;-64
2022/08/19 07:27:44;;;;;;;62.40;42.72;;;;;;;;;;5031934;28;20231;-64
2022/08/19 07:30:15;;;;;;;59.95;42.53;;;;;;;;;;5048069;28;20233;-65
2022/08/19 07:32:42;;;;;;;62.60;42.13;;;;;;;;;;5032072;28;20299;-65
2022/08/19 07:35:10;;;;;;;66.38;43.72;;;;;;;;;;5032455;28;20213;-65
2022/08/19 07:37:38;;;;;;;62.45;43.33;;;;;;;;;;5051379;28;20750;-63
2022/08/19 07:40:07;;;;;;;64.97;44.90;;;;;;;;;;5038809;28;20237;-65
2022/08/19 07:42:34;;;;;;;67.50;43.25;;;;;;;;;;5051443;28;20244;-66
2022/08/19 07:45:02;;;;;;;65.05;44.90;;;;;;;;;;5044561;28;20209;-64
2022/08/19 07:47:29;;;;;;;63.08;43.55;;;;;;;;;;5049394;28;20221;-67
2022/08/19 07:50:18;;;;;;;67.85;44.75;;;;;;;;;;5057085;28;20249;-66
2022/08/19 07:52:46;;;;;;;63.22;44.78;;;;;;;;;;5038137;28;20205;-66
2022/08/19 07:55:16;;;;;;;72.35;46.75;;;;;;;;;;5042119;28;20210;-65
2022/08/19 07:58:04;;;;;;;66.78;44.38;;;;;;;;;;5041302;28;20202;-66
2022/08/19 08:00:32;;;;;;;66.50;44.55;;;;;;;;;;5052405;28;20230;-67
2022/08/19 08:03:00;;;;;;;62.78;43.15;;;;;;;;;;5061732;28;20197;-66
2022/08/19 08:11:00;;;;;;;61.40;41.25;;;;;;;;;;5056372;28;20269;-65
2022/08/19 08:13:28;;;;;;;59.88;42.35;;;;;;;;;;5045728;28;20217;-65
2022/08/19 08:15:56;;;;;;;59.13;41.75;;;;;;;;;;5045594;28;20221;-65
2022/08/19 08:18:24;;;;;;;59.17;40.35;;;;;;;;;;5042132;28;20201;-65
2022/08/19 08:20:57;;;;;;;55.88;40.05;;;;;;;;;;5052811;28;20636;-65
2022/08/19 08:23:25;;;;;;;56.58;39.00;;;;;;;;;;5044567;28;20660;-65
2022/08/19 08:25:54;;;;;;;51.50;37.45;;;;;;;;;;5052488;28;20206;-65
2022/08/19 08:28:22;;;;;;;57.95;37.97;;;;;;;;;;5053791;28;20205;-65
2022/08/19 08:30:50;;;;;;;51.72;37.55;;;;;;;;;;5053114;28;20230;-65
2022/08/19 08:33:19;;;;;;;55.33;38.50;;;;;;;;;;5043131;28;20711;-65
2022/08/19 08:36:01;;;;;;;49.50;35.33;;;;;;;;;;5064595;28;20213;-65
2022/08/19 08:38:31;;;;;;;46.35;35.63;;;;;;;;;;5048844;28;20687;-65
2022/08/19 08:41:35;;;;;;;47.13;35.03;;;;;;;;;;5055953;28;20233;-65
2022/08/19 08:44:07;;;;;;;43.80;33.03;;;;;;;;;;5043047;28;20254;-65
2022/08/19 08:46:48;;;;;;;41.85;32.53;;;;;;;;;;5059152;28;20585;-65
2022/08/19 08:49:28;;;;;;;44.25;32.95;;;;;;;;;;5048415;28;20205;-64
2022/08/19 08:52:01;;;;;;;40.72;29.52;;;;;;;;;;5040563;28;20205;-64
2022/08/19 08:54:34;;;;;;;37.55;29.60;;;;;;;;;;5045596;28;20205;-65
2022/08/19 08:57:04;;;;;;;36.60;27.17;;;;;;;;;;5049171;28;20232;-64
2022/08/19 08:59:34;;;;;;;35.22;26.92;;;;;;;;;;5041500;28;20687;-63
2022/08/19 09:02:02;;;;;;;31.40;25.08;;;;;;;;;;5071335;28;20226;-65
2022/08/19 09:04:29;;;;;;;29.55;22.48;;;;;;;;;;5062288;28;20209;-64
2022/08/19 09:07:03;;;;;;;28.45;22.25;;;;;;;;;;5046554;28;20221;-65
2022/08/19 09:09:52;;;;;;;26.65;22.35;;;;;;;;;;5055884;28;20222;-65
2022/08/19 09:12:22;;;;;;;22.83;19.20;;;;;;;;;;5066424;28;20205;-66
2022/08/19 09:15:02;;;;;;;24.98;19.73;;;;;;;;;;5052700;28;21295;-63
2022/08/19 09:17:30;;;;;;;23.67;19.23;;;;;;;;;;5057171;28;20206;-65
2022/08/19 09:20:06;;;;;;;19.85;16.20;;;;;;;;;;5048998;28;20217;-65
2022/08/19 09:22:36;;;;;;;18.20;15.48;;;;;;;;;;5054556;28;20201;-65
2022/08/19 09:25:04;;;;;;;18.70;15.48;;;;;;;;;;5053402;28;20210;-64
2022/08/19 09:27:32;;;;;;;15.63;13.75;;;;;;;;;;5049500;28;20607;-64
2022/08/19 09:30:12;;;;;;;13.52;12.05;;;;;;;;;;5048603;28;20640;-64
2022/08/19 09:32:42;;;;;;;12.63;10.13;;;;;;;;;;5046578;28;20798;-67
2022/08/19 09:35:09;;;;;;;10.85;9.63;;;;;;;;;;5063485;28;20643;-65
2022/08/19 09:37:38;;;;;;;9.13;8.18;;;;;;;;;;5035766;28;20209;-66
2022/08/19 09:40:06;;;;;;;9.15;8.27;;;;;;;;;;5037799;28;20240;-66
2022/08/19 09:42:38;;;;;;;9.90;9.00;;;;;;;;;;5042727;28;20259;-66
2022/08/19 09:45:17;;;;;;;7.97;7.28;;;;;;;;;;5023958;28;20202;-65
2022/08/19 09:47:45;;;;;;;8.23;7.43;;;;;;;;;;5014089;28;20217;-66
2022/08/19 09:50:13;;;;;;;8.98;8.13;;;;;;;;;;5028087;28;21216;-63
2022/08/19 09:52:43;;;;;;;7.38;6.68;;;;;;;;;;5037061;28;20205;-68
2022/08/19 09:55:23;;;;;;;7.60;6.80;;;;;;;;;;5048456;28;20205;-64
2022/08/19 09:57:58;;;;;;;7.68;6.97;;;;;;;;;;5034405;28;20202;-64
2022/08/19 10:00:26;;;;;;;7.93;7.15;;;;;;;;;;5029637;28;20233;-64
2022/08/19 10:02:54;;;;;;;9.93;8.65;;;;;;;;;;5036528;28;20545;-63
2022/08/19 10:08:09;;;;;;;12.32;9.68;;;;;;;;;;5032166;28;20795;-65
2022/08/19 10:10:43;;;;;;;11.82;10.57;;;;;;;;;;5025924;28;20229;-64
2022/08/19 10:13:14;;;;;;;12.40;10.75;;;;;;;;;;5034957;28;20213;-64
2022/08/19 10:15:42;;;;;;;12.68;11.38;;;;;;;;;;5027151;28;20258;-65
2022/08/19 10:18:14;;;;;;;12.75;11.38;;;;;;;;;;5014415;28;20213;-64
2022/08/19 10:20:41;;;;;;;15.02;12.45;;;;;;;;;;5014784;28;20536;-64
2022/08/19 10:23:09;;;;;;;13.63;11.60;;;;;;;;;;5024041;28;20845;-64
2022/08/19 10:25:37;;;;;;;14.07;12.00;;;;;;;;;;4995079;28;20937;-65
2022/08/19 10:28:07;;;;;;;11.70;10.57;;;;;;;;;;5017419;28;20198;-64
2022/08/19 10:30:37;;;;;;;12.75;11.52;;;;;;;;;;5005735;28;21114;-65
2022/08/19 10:33:05;;;;;;;14.63;12.68;;;;;;;;;;5025415;28;20315;-64
2022/08/19 10:35:37;;;;;;;14.68;12.88;;;;;;;;;;5023084;28;20258;-64
2022/08/19 10:38:22;;;;;;;18.42;16.27;;;;;;;;;;5012113;28;20216;-64
2022/08/19 10:40:58;;;;;;;16.50;14.88;;;;;;;;;;5024209;28;22300;-63
2022/08/19 10:43:26;;;;;;;16.77;15.02;;;;;;;;;;5044651;28;20206;-65
2022/08/19 10:45:58;;;;;;;17.58;15.82;;;;;;;;;;5015741;28;20733;-65
2022/08/19 10:48:25;;;;;;;17.83;15.82;;;;;;;;;;5033542;28;20210;-65
2022/08/19 10:53:49;;;;;;;19.58;17.60;;;;;;;;;;5039507;28;20876;-65
2022/08/19 10:59:03;;;;;;;21.65;19.45;;;;;;;;;;5045412;28;20205;-65
2022/08/19 11:01:32;;;;;;;21.63;19.33;;;;;;;;;;5026696;28;20258;-65
2022/08/19 11:04:01;;;;;;;22.25;19.85;;;;;;;;;;5024618;28;20214;-65
2022/08/19 11:06:31;;;;;;;23.83;21.35;;;;;;;;;;5020209;28;20528;-65
2022/08/19 11:08:59;;;;;;;22.67;19.90;;;;;;;;;;5037103;28;20210;-65
2022/08/19 11:11:28;;;;;;;23.65;21.10;;;;;;;;;;5024612;28;20244;-65
2022/08/19 11:13:57;;;;;;;23.17;20.30;;;;;;;;;;5035174;28;20209;-65
2022/08/19 11:16:29;;;;;;;22.88;20.48;;;;;;;;;;5058346;28;20226;-65
2022/08/19 11:18:58;;;;;;;22.52;20.17;;;;;;;;;;5036587;28;20205;-65
2022/08/19 11:21:28;;;;;;;24.08;21.00;;;;;;;;;;5040381;28;20287;-65
2022/08/19 11:23:57;;;;;;;19.98;17.92;;;;;;;;;;5014714;28;20205;-65
2022/08/19 11:26:24;;;;;;;21.10;18.02;;;;;;;;;;5023472;28;20414;-65
2022/08/19 11:28:54;;;;;;;18.80;16.92;;;;;;;;;;5026711;28;20209;-65
2022/08/19 11:31:23;;;;;;;17.95;16.00;;;;;;;;;;5041152;28;20225;-66
2022/08/19 11:33:57;;;;;;;16.10;14.50;;;;;;;;;;5024732;28;20716;-65
2022/08/19 11:36:24;;;;;;;14.68;13.23;;;;;;;;;;5042206;28;20210;-65
2022/08/19 11:38:54;;;;;;;14.98;13.52;;;;;;;;;;5036294;28;20212;-66
2022/08/19 11:41:23;;;;;;;15.05;13.60;;;;;;;;;;5032342;28;20292;-66
2022/08/19 11:43:54;;;;;;;13.27;12.07;;;;;;;;;;5027536;28;20218;-65
2022/08/19 11:46:23;;;;;;;12.88;11.57;;;;;;;;;;5046278;28;20333;-64
2022/08/19 11:48:51;;;;;;;12.82;11.63;;;;;;;;;;5032501;28;20230;-64
2022/08/19 11:51:21;;;;;;;13.55;12.15;;;;;;;;;;5034327;28;21130;-66
2022/08/19 11:53:50;;;;;;;13.70;12.40;;;;;;;;;;5034090;28;20206;-67
2022/08/19 11:56:18;;;;;;;12.20;11.00;;;;;;;;;;5043042;28;20214;-64
2022/08/19 11:58:47;;;;;;;11.52;10.48;;;;;;;;;;5043913;28;21494;-65
2022/08/19 12:01:17;;;;;;;9.45;8.55;;;;;;;;;;5046272;28;21832;-65
2022/08/19 12:03:46;;;;;;;9.48;8.68;;;;;;;;;;5038797;28;20619;-64
2022/08/19 12:06:16;;;;;;;12.30;11.00;;;;;;;;;;5046589;28;20201;-63
2022/08/19 12:08:47;;;;;;;12.88;11.57;;;;;;;;;;5041422;28;20198;-65
2022/08/19 12:11:15;;;;;;;16.75;15.05;;;;;;;;;;5041511;28;20791;-65
2022/08/19 12:13:46;;;;;;;26.33;18.58;;;;;;;;;;5047664;28;20205;-66
2022/08/19 12:16:15;;;;;;;23.30;20.83;;;;;;;;;;5058985;28;20214;-65
2022/08/19 12:18:45;;;;;;;25.88;22.88;;;;;;;;;;5056990;28;20202;-66
2022/08/19 12:21:17;;;;;;;28.25;23.75;;;;;;;;;;5034915;28;20726;-68
2022/08/19 12:23:48;;;;;;;25.65;22.77;;;;;;;;;;5022448;28;20198;-68
2022/08/19 12:26:22;;;;;;;25.55;22.88;;;;;;;;;;5037755;28;20347;-69
2022/08/19 12:28:49;;;;;;;27.35;22.63;;;;;;;;;;5041888;28;20205;-66
2022/08/19 12:31:19;;;;;;;28.95;24.25;;;;;;;;;;5025783;28;20230;-66
2022/08/19 12:33:47;;;;;;;28.33;25.23;;;;;;;;;;5030810;28;20214;-66
2022/08/19 12:36:17;;;;;;;29.77;25.92;;;;;;;;;;5035550;28;20206;-69
2022/08/19 12:38:46;;;;;;;35.45;27.75;;;;;;;;;;5021831;28;20221;-66
2022/08/19 12:41:15;;;;;;;31.42;27.30;;;;;;;;;;5034010;28;20229;-65
2022/08/19 12:43:42;;;;;;;34.83;29.15;;;;;;;;;;5042512;28;20288;-66
2022/08/19 12:46:10;;;;;;;38.58;30.45;;;;;;;;;;5041484;28;20209;-66
2022/08/19 12:48:44;;;;;;;35.65;30.65;;;;;;;;;;5036465;28;20218;-66
2022/08/19 12:51:13;;;;;;;34.25;29.58;;;;;;;;;;5030678;28;21749;-66
2022/08/19 12:53:41;;;;;;;39.72;30.35;;;;;;;;;;5036605;28;20205;-66
2022/08/19 12:56:10;;;;;;;33.75;29.38;;;;;;;;;;5043945;28;20209;-66
2022/08/19 12:58:39;;;;;;;38.33;30.95;;;;;;;;;;5041828;28;20301;-65
2022/08/19 13:01:07;;;;;;;32.90;29.23;;;;;;;;;;5047050;28;20271;-65
2022/08/19 13:03:35;;;;;;;38.92;32.08;;;;;;;;;;5026247;28;20745;-64
2022/08/19 13:06:06;;;;;;;36.72;30.75;;;;;;;;;;5034024;28;20216;-64
2022/08/19 13:08:34;;;;;;;35.38;30.15;;;;;;;;;;5040762;28;20729;-63
2022/08/19 13:11:10;;;;;;;35.33;31.17;;;;;;;;;;5045116;28;20217;-65
2022/08/19 13:13:40;;;;;;;33.25;29.65;;;;;;;;;;5045726;28;20601;-65
2022/08/19 13:16:10;;;;;;;36.88;31.25;;;;;;;;;;5057373;28;20205;-66
2022/08/19 13:18:37;;;;;;;39.28;32.17;;;;;;;;;;5062626;28;20263;-68
2022/08/19 13:21:06;;;;;;;32.28;28.95;;;;;;;;;;5047094;28;20315;-67
2022/08/19 13:23:35;;;;;;;34.17;30.33;;;;;;;;;;5035542;28;21433;-64
2022/08/19 13:26:04;;;;;;;32.17;28.83;;;;;;;;;;5036619;28;20201;-64
2022/08/19 13:34:06;;;;;;;32.47;28.63;;;;;;;;;;5050834;28;20562;-65
2022/08/19 13:36:34;;;;;;;31.50;28.17;;;;;;;;;;5042702;28;20720;-67
2022/08/19 13:39:01;;;;;;;34.50;30.88;;;;;;;;;;5039169;28;20210;-64
2022/08/19 13:41:30;;;;;;;33.80;30.20;;;;;;;;;;5044887;28;20237;-64
2022/08/19 13:43:58;;;;;;;30.75;27.45;;;;;;;;;;5029711;28;20206;-65
2022/08/19 13:46:27;;;;;;;32.38;28.92;;;;;;;;;;5040743;28;20214;-66
2022/08/19 13:48:54;;;;;;;32.38;28.98;;;;;;;;;;5045059;28;20206;-65
2022/08/19 13:51:21;;;;;;;31.45;28.10;;;;;;;;;;5022979;28;20325;-65
2022/08/19 13:53:50;;;;;;;30.92;27.55;;;;;;;;;;5024667;28;20236;-65
2022/08/19 13:56:19;;;;;;;31.75;28.45;;;;;;;;;;5043120;28;20218;-66
2022/08/19 13:58:53;;;;;;;30.33;27.23;;;;;;;;;;5023600;28;20213;-65
2022/08/19 14:01:22;;;;;;;32.05;28.33;;;;;;;;;;5022513;28;20592;-65
2022/08/19 14:03:51;;;;;;;30.58;27.05;;;;;;;;;;5048897;28;20204;-64
2022/08/19 14:06:19;;;;;;;31.90;28.40;;;;;;;;;;5061233;28;20271;-63
2022/08/19 14:08:49;;;;;;;30.52;27.25;;;;;;;;;;5046394;28;20636;-66
2022/08/19 14:11:17;;;;;;;30.40;27.13;;;;;;;;;;5027428;28;20225;-64
2022/08/19 14:13:44;;;;;;;31.98;28.60;;;;;;;;;;5024032;28;20620;-67
2022/08/19 14:16:13;;;;;;;32.30;28.92;;;;;;;;;;5041582;28;20295;-65
2022/08/19 14:18:41;;;;;;;30.20;26.73;;;;;;;;;;5025956;28;20202;-66
2022/08/19 14:21:08;;;;;;;31.58;28.38;;;;;;;;;;5027798;28;20224;-65
2022/08/19 14:23:36;;;;;;;30.73;27.45;;;;;;;;;;5027551;28;20598;-65
2022/08/19 14:26:08;;;;;;;30.30;27.15;;;;;;;;;;5024737;28;20263;-63
2022/08/19 14:28:36;;;;;;;29.77;26.77;;;;;;;;;;5033236;28;20213;-66
2022/08/19 14:31:03;;;;;;;30.73;27.55;;;;;;;;;;5022699;28;20228;-66
2022/08/19 14:33:32;;;;;;;31.10;27.90;;;;;;;;;;5017101;28;20212;-67
2022/08/19 14:36:00;;;;;;;31.92;28.40;;;;;;;;;;5037051;28;20217;-66
2022/08/19 14:38:31;;;;;;;30.58;27.48;;;;;;;;;;5033920;28;20666;-66
2022/08/19 14:41:28;;;;;;;30.27;27.10;;;;;;;;;;5045890;28;21327;-65
2022/08/19 14:43:55;;;;;;;30.98;27.67;;;;;;;;;;5024843;28;20385;-67
2022/08/19 14:46:25;;;;;;;31.25;28.02;;;;;;;;;;5033432;28;20296;-67
2022/08/19 14:48:56;;;;;;;29.90;26.70;;;;;;;;;;5048414;28;20213;-66
2022/08/19 14:51:29;;;;;;;30.25;27.05;;;;;;;;;;5031636;28;20236;-67
2022/08/19 14:53:56;;;;;;;30.88;27.77;;;;;;;;;;5032000;28;20289;-65
2022/08/19 14:56:25;;;;;;;29.83;26.63;;;;;;;;;;5060682;28;20205;-66
2022/08/19 14:58:53;;;;;;;31.35;27.98;;;;;;;;;;5047025;28;20604;-65
2022/08/19 15:01:22;;;;;;;32.47;28.80;;;;;;;;;;5036066;28;20233;-66